Chubbuck, Idaho
Current Conditions -  °F | °C
As of 3:53 PM on Wednesday 17 Dec 2014 (Local Time) from KPIH Reporting Station
Few Clouds Few Clouds  
Wind Chill: 33°   Ceiling: Unl
Heat Index: 38°   Visibility: 10mi
Dew Point: 32°   Wind: 7mph
Humidity: 79%   Direction: 60°ENE
Pressure: 29.98"   Gusts: NA
Location:  42.9377°N, 112.489°W
Report Text: KPIH 172253Z 06006KT 10SM FEW030 03/00 A2998 RMK AO2 SLP171 T00330000
Loading
Personal Weather Stations






























Interactive Weather Map New forecast layout! Learn more

10-Day Weather Forecast

Advertisements
Track Severe Weather on mobile